sensor_id;sensor_type;location;lat;lon;timestamp;P1;durP1;ratioP1;P2;durP2;ratioP2
58302;SDS011;44109;52.398;7.024;2022-08-04T00:00:29;6.40;;;4.43;;
58302;SDS011;44109;52.398;7.024;2022-08-04T00:03:09;6.25;;;4.53;;
58302;SDS011;44109;52.398;7.024;2022-08-04T00:05:53;6.07;;;3.90;;
58302;SDS011;44109;52.398;7.024;2022-08-04T00:08:33;7.97;;;4.55;;
58302;SDS011;44109;52.398;7.024;2022-08-04T00:11:10;7.30;;;4.25;;
58302;SDS011;44109;52.398;7.024;2022-08-04T00:13:49;8.43;;;4.47;;
58302;SDS011;44109;52.398;7.024;2022-08-04T00:16:23;6.10;;;4.25;;
58302;SDS011;44109;52.398;7.024;2022-08-04T00:19:00;10.10;;;4.45;;
58302;SDS011;44109;52.398;7.024;2022-08-04T00:21:34;6.13;;;4.45;;
58302;SDS011;44109;52.398;7.024;2022-08-04T00:24:06;6.70;;;3.75;;
58302;SDS011;44109;52.398;7.024;2022-08-04T00:26:38;6.93;;;4.13;;
58302;SDS011;44109;52.398;7.024;2022-08-04T00:29:06;6.30;;;4.25;;
58302;SDS011;44109;52.398;7.024;2022-08-04T00:31:34;5.40;;;3.47;;
58302;SDS011;44109;52.398;7.024;2022-08-04T00:34:02;5.35;;;4.18;;
58302;SDS011;44109;52.398;7.024;2022-08-04T00:36:31;5.63;;;4.00;;
58302;SDS011;44109;52.398;7.024;2022-08-04T00:39:00;6.13;;;3.42;;
58302;SDS011;44109;52.398;7.024;2022-08-04T00:41:43;6.03;;;4.28;;
58302;SDS011;44109;52.398;7.024;2022-08-04T00:44:41;7.40;;;4.45;;
58302;SDS011;44109;52.398;7.024;2022-08-04T00:47:34;5.63;;;4.10;;
58302;SDS011;44109;52.398;7.024;2022-08-04T00:50:22;8.38;;;5.13;;
58302;SDS011;44109;52.398;7.024;2022-08-04T00:53:02;6.90;;;4.20;;
58302;SDS011;44109;52.398;7.024;2022-08-04T00:55:41;6.53;;;4.20;;
58302;SDS011;44109;52.398;7.024;2022-08-04T00:58:32;6.80;;;4.90;;
58302;SDS011;44109;52.398;7.024;2022-08-04T01:01:18;6.82;;;4.63;;
58302;SDS011;44109;52.398;7.024;2022-08-04T01:04:07;6.50;;;4.20;;
58302;SDS011;44109;52.398;7.024;2022-08-04T01:06:44;7.03;;;4.35;;
58302;SDS011;44109;52.398;7.024;2022-08-04T01:09:40;9.07;;;4.82;;
58302;SDS011;44109;52.398;7.024;2022-08-04T01:12:32;7.88;;;4.32;;
58302;SDS011;44109;52.398;7.024;2022-08-04T01:15:19;8.18;;;4.30;;
58302;SDS011;44109;52.398;7.024;2022-08-04T01:18:03;6.30;;;4.38;;
58302;SDS011;44109;52.398;7.024;2022-08-04T01:20:33;6.32;;;4.38;;
58302;SDS011;44109;52.398;7.024;2022-08-04T01:26:49;7.50;;;4.35;;
58302;SDS011;44109;52.398;7.024;2022-08-04T01:29:30;5.68;;;3.67;;
58302;SDS011;44109;52.398;7.024;2022-08-04T01:32:05;6.38;;;4.40;;
58302;SDS011;44109;52.398;7.024;2022-08-04T01:34:40;5.45;;;3.92;;
58302;SDS011;44109;52.398;7.024;2022-08-04T01:37:19;6.10;;;3.65;;
58302;SDS011;44109;52.398;7.024;2022-08-04T01:40:13;8.57;;;4.78;;
58302;SDS011;44109;52.398;7.024;2022-08-04T01:42:43;6.38;;;3.95;;
58302;SDS011;44109;52.398;7.024;2022-08-04T01:45:12;6.05;;;4.00;;
58302;SDS011;44109;52.398;7.024;2022-08-04T01:47:45;4.93;;;3.05;;
58302;SDS011;44109;52.398;7.024;2022-08-04T01:50:17;5.97;;;3.00;;
58302;SDS011;44109;52.398;7.024;2022-08-04T01:52:47;8.73;;;4.07;;
58302;SDS011;44109;52.398;7.024;2022-08-04T01:55:20;5.63;;;3.85;;
58302;SDS011;44109;52.398;7.024;2022-08-04T01:57:49;5.90;;;3.67;;
58302;SDS011;44109;52.398;7.024;2022-08-04T02:00:21;5.55;;;3.63;;
58302;SDS011;44109;52.398;7.024;2022-08-04T02:05:21;4.95;;;3.40;;
58302;SDS011;44109;52.398;7.024;2022-08-04T02:08:00;8.13;;;3.47;;
58302;SDS011;44109;52.398;7.024;2022-08-04T02:10:45;4.88;;;3.20;;
58302;SDS011;44109;52.398;7.024;2022-08-04T02:13:30;4.10;;;2.80;;
58302;SDS011;44109;52.398;7.024;2022-08-04T02:16:21;5.85;;;3.40;;
58302;SDS011;44109;52.398;7.024;2022-08-04T02:19:02;6.85;;;3.63;;
58302;SDS011;44109;52.398;7.024;2022-08-04T02:21:38;7.45;;;3.42;;
58302;SDS011;44109;52.398;7.024;2022-08-04T02:24:07;4.75;;;3.58;;
58302;SDS011;44109;52.398;7.024;2022-08-04T02:26:42;5.07;;;3.83;;
58302;SDS011;44109;52.398;7.024;2022-08-04T02:29:16;7.05;;;3.72;;
58302;SDS011;44109;52.398;7.024;2022-08-04T02:31:55;5.43;;;2.80;;
58302;SDS011;44109;52.398;7.024;2022-08-04T02:34:27;9.30;;;3.30;;
58302;SDS011;44109;52.398;7.024;2022-08-04T02:37:00;4.55;;;3.13;;
58302;SDS011;44109;52.398;7.024;2022-08-04T02:39:32;8.07;;;3.65;;
58302;SDS011;44109;52.398;7.024;2022-08-04T02:42:03;4.70;;;3.03;;
58302;SDS011;44109;52.398;7.024;2022-08-04T02:44:31;8.32;;;3.38;;
58302;SDS011;44109;52.398;7.024;2022-08-04T02:47:05;7.00;;;2.95;;
58302;SDS011;44109;52.398;7.024;2022-08-04T02:49:34;8.63;;;3.33;;
58302;SDS011;44109;52.398;7.024;2022-08-04T02:52:03;5.50;;;2.85;;
58302;SDS011;44109;52.398;7.024;2022-08-04T02:54:37;5.07;;;3.50;;
58302;SDS011;44109;52.398;7.024;2022-08-04T02:57:07;6.75;;;3.38;;
58302;SDS011;44109;52.398;7.024;2022-08-04T02:59:41;5.32;;;2.80;;
58302;SDS011;44109;52.398;7.024;2022-08-04T03:02:38;7.53;;;2.95;;
58302;SDS011;44109;52.398;7.024;2022-08-04T03:05:21;6.00;;;3.30;;
58302;SDS011;44109;52.398;7.024;2022-08-04T03:15:19;5.93;;;2.35;;
58302;SDS011;44109;52.398;7.024;2022-08-04T03:18:28;4.90;;;2.55;;
58302;SDS011;44109;52.398;7.024;2022-08-04T03:25:13;7.60;;;2.63;;
58302;SDS011;44109;52.398;7.024;2022-08-04T03:28:24;3.45;;;2.25;;
58302;SDS011;44109;52.398;7.024;2022-08-04T03:31:43;4.82;;;2.80;;
58302;SDS011;44109;52.398;7.024;2022-08-04T03:34:42;6.13;;;2.40;;
58302;SDS011;44109;52.398;7.024;2022-08-04T03:37:45;3.85;;;2.20;;
58302;SDS011;44109;52.398;7.024;2022-08-04T03:40:48;3.92;;;2.08;;
58302;SDS011;44109;52.398;7.024;2022-08-04T03:43:52;6.47;;;3.28;;
58302;SDS011;44109;52.398;7.024;2022-08-04T03:47:12;5.97;;;3.15;;
58302;SDS011;44109;52.398;7.024;2022-08-04T03:50:15;5.85;;;3.13;;
58302;SDS011;44109;52.398;7.024;2022-08-04T03:53:09;7.72;;;3.35;;
58302;SDS011;44109;52.398;7.024;2022-08-04T03:56:13;5.18;;;2.58;;
58302;SDS011;44109;52.398;7.024;2022-08-04T03:59:17;6.22;;;2.42;;
58302;SDS011;44109;52.398;7.024;2022-08-04T04:05:23;4.28;;;2.38;;
58302;SDS011;44109;52.398;7.024;2022-08-04T04:08:37;3.92;;;2.33;;
58302;SDS011;44109;52.398;7.024;2022-08-04T04:11:38;5.68;;;3.38;;
58302;SDS011;44109;52.398;7.024;2022-08-04T04:14:53;7.07;;;2.92;;
58302;SDS011;44109;52.398;7.024;2022-08-04T04:21:01;5.60;;;2.70;;
58302;SDS011;44109;52.398;7.024;2022-08-04T04:24:05;4.30;;;2.15;;
58302;SDS011;44109;52.398;7.024;2022-08-04T04:27:14;6.43;;;2.77;;
58302;SDS011;44109;52.398;7.024;2022-08-04T04:35:41;4.97;;;3.03;;
58302;SDS011;44109;52.398;7.024;2022-08-04T04:47:39;6.13;;;2.60;;
58302;SDS011;44109;52.398;7.024;2022-08-04T04:50:22;6.07;;;3.05;;
58302;SDS011;44109;52.398;7.024;2022-08-04T04:53:05;4.03;;;2.65;;
58302;SDS011;44109;52.398;7.024;2022-08-04T04:55:44;8.27;;;2.70;;
58302;SDS011;44109;52.398;7.024;2022-08-04T04:58:19;6.85;;;2.60;;
58302;SDS011;44109;52.398;7.024;2022-08-04T05:00:52;4.70;;;3.00;;
58302;SDS011;44109;52.398;7.024;2022-08-04T05:03:47;7.35;;;3.30;;
58302;SDS011;44109;52.398;7.024;2022-08-04T05:06:42;7.03;;;3.10;;
58302;SDS011;44109;52.398;7.024;2022-08-04T05:09:36;5.70;;;2.60;;
58302;SDS011;44109;52.398;7.024;2022-08-04T05:12:36;8.05;;;3.67;;
58302;SDS011;44109;52.398;7.024;2022-08-04T05:15:22;9.90;;;3.25;;
58302;SDS011;44109;52.398;7.024;2022-08-04T05:17:57;6.35;;;3.17;;
58302;SDS011;44109;52.398;7.024;2022-08-04T05:20:32;7.45;;;3.42;;
58302;SDS011;44109;52.398;7.024;2022-08-04T05:23:07;7.05;;;2.40;;
58302;SDS011;44109;52.398;7.024;2022-08-04T05:25:42;5.57;;;3.00;;
58302;SDS011;44109;52.398;7.024;2022-08-04T05:28:19;5.68;;;3.17;;
58302;SDS011;44109;52.398;7.024;2022-08-04T05:30:52;3.75;;;2.50;;
58302;SDS011;44109;52.398;7.024;2022-08-04T05:33:26;6.93;;;2.60;;
58302;SDS011;44109;52.398;7.024;2022-08-04T05:36:04;4.85;;;3.05;;
58302;SDS011;44109;52.398;7.024;2022-08-04T05:38:41;5.70;;;2.88;;
58302;SDS011;44109;52.398;7.024;2022-08-04T05:41:11;4.60;;;2.35;;
58302;SDS011;44109;52.398;7.024;2022-08-04T05:43:42;7.63;;;3.30;;
58302;SDS011;44109;52.398;7.024;2022-08-04T05:46:11;8.25;;;2.85;;
58302;SDS011;44109;52.398;7.024;2022-08-04T05:48:42;6.88;;;2.72;;
58302;SDS011;44109;52.398;7.024;2022-08-04T05:51:11;4.90;;;2.72;;
58302;SDS011;44109;52.398;7.024;2022-08-04T05:53:42;7.32;;;3.10;;
58302;SDS011;44109;52.398;7.024;2022-08-04T05:56:12;7.18;;;3.30;;
58302;SDS011;44109;52.398;7.024;2022-08-04T05:58:43;5.10;;;2.40;;
58302;SDS011;44109;52.398;7.024;2022-08-04T06:01:12;6.53;;;2.72;;
58302;SDS011;44109;52.398;7.024;2022-08-04T06:03:43;7.75;;;2.90;;
58302;SDS011;44109;52.398;7.024;2022-08-04T06:06:15;11.57;;;3.00;;
58302;SDS011;44109;52.398;7.024;2022-08-04T06:08:45;5.78;;;2.97;;
58302;SDS011;44109;52.398;7.024;2022-08-04T06:11:13;5.80;;;3.17;;
58302;SDS011;44109;52.398;7.024;2022-08-04T06:13:46;7.32;;;2.67;;
58302;SDS011;44109;52.398;7.024;2022-08-04T06:16:20;11.68;;;3.05;;
58302;SDS011;44109;52.398;7.024;2022-08-04T06:18:52;10.68;;;3.72;;
58302;SDS011;44109;52.398;7.024;2022-08-04T06:21:23;6.50;;;2.63;;
58302;SDS011;44109;52.398;7.024;2022-08-04T06:23:55;6.75;;;2.75;;
58302;SDS011;44109;52.398;7.024;2022-08-04T06:26:26;5.25;;;2.40;;
58302;SDS011;44109;52.398;7.024;2022-08-04T06:29:00;4.83;;;2.83;;
58302;SDS011;44109;52.398;7.024;2022-08-04T06:31:30;13.50;;;3.10;;
58302;SDS011;44109;52.398;7.024;2022-08-04T06:34:12;4.00;;;1.90;;
58302;SDS011;44109;52.398;7.024;2022-08-04T06:36:41;6.20;;;2.03;;
58302;SDS011;44109;52.398;7.024;2022-08-04T06:39:10;6.47;;;2.50;;
58302;SDS011;44109;52.398;7.024;2022-08-04T06:41:39;6.65;;;2.85;;
58302;SDS011;44109;52.398;7.024;2022-08-04T06:44:10;7.68;;;2.40;;
58302;SDS011;44109;52.398;7.024;2022-08-04T06:46:40;8.15;;;2.42;;
58302;SDS011;44109;52.398;7.024;2022-08-04T06:49:09;6.63;;;2.20;;
58302;SDS011;44109;52.398;7.024;2022-08-04T06:51:39;4.40;;;2.08;;
58302;SDS011;44109;52.398;7.024;2022-08-04T06:54:08;5.45;;;2.25;;
58302;SDS011;44109;52.398;7.024;2022-08-04T06:56:36;5.82;;;2.30;;
58302;SDS011;44109;52.398;7.024;2022-08-04T06:59:07;5.38;;;2.08;;
58302;SDS011;44109;52.398;7.024;2022-08-04T07:01:41;6.03;;;2.38;;
58302;SDS011;44109;52.398;7.024;2022-08-04T07:04:12;5.30;;;2.55;;
58302;SDS011;44109;52.398;7.024;2022-08-04T07:06:41;5.25;;;2.22;;
58302;SDS011;44109;52.398;7.024;2022-08-04T07:09:09;5.43;;;2.00;;
58302;SDS011;44109;52.398;7.024;2022-08-04T07:11:37;4.57;;;1.75;;
58302;SDS011;44109;52.398;7.024;2022-08-04T07:14:05;7.43;;;2.47;;
58302;SDS011;44109;52.398;7.024;2022-08-04T07:16:35;5.55;;;2.20;;
58302;SDS011;44109;52.398;7.024;2022-08-04T07:19:06;3.92;;;1.80;;
58302;SDS011;44109;52.398;7.024;2022-08-04T07:21:34;6.03;;;1.80;;
58302;SDS011;44109;52.398;7.024;2022-08-04T07:24:03;6.70;;;2.55;;
58302;SDS011;44109;52.398;7.024;2022-08-04T07:26:31;5.40;;;1.50;;
58302;SDS011;44109;52.398;7.024;2022-08-04T07:28:59;4.22;;;1.67;;
58302;SDS011;44109;52.398;7.024;2022-08-04T07:31:28;5.35;;;1.60;;
58302;SDS011;44109;52.398;7.024;2022-08-04T07:33:59;3.45;;;1.75;;
58302;SDS011;44109;52.398;7.024;2022-08-04T07:36:28;5.70;;;2.03;;
58302;SDS011;44109;52.398;7.024;2022-08-04T07:38:56;7.70;;;2.15;;
58302;SDS011;44109;52.398;7.024;2022-08-04T07:41:24;7.13;;;2.30;;
58302;SDS011;44109;52.398;7.024;2022-08-04T07:43:52;4.22;;;2.33;;
58302;SDS011;44109;52.398;7.024;2022-08-04T07:46:20;4.90;;;1.80;;
58302;SDS011;44109;52.398;7.024;2022-08-04T07:48:48;5.72;;;1.75;;
58302;SDS011;44109;52.398;7.024;2022-08-04T07:51:17;6.78;;;2.15;;
58302;SDS011;44109;52.398;7.024;2022-08-04T07:53:45;4.40;;;1.70;;
58302;SDS011;44109;52.398;7.024;2022-08-04T07:56:14;4.70;;;1.90;;
58302;SDS011;44109;52.398;7.024;2022-08-04T07:58:43;5.30;;;2.15;;
58302;SDS011;44109;52.398;7.024;2022-08-04T08:01:11;4.18;;;1.65;;
58302;SDS011;44109;52.398;7.024;2022-08-04T08:03:40;5.93;;;2.08;;
58302;SDS011;44109;52.398;7.024;2022-08-04T08:06:09;3.63;;;1.90;;
58302;SDS011;44109;52.398;7.024;2022-08-04T08:08:38;6.25;;;1.70;;
58302;SDS011;44109;52.398;7.024;2022-08-04T08:11:07;6.80;;;2.38;;
58302;SDS011;44109;52.398;7.024;2022-08-04T08:13:35;5.35;;;2.55;;
58302;SDS011;44109;52.398;7.024;2022-08-04T08:16:04;23.35;;;10.07;;
58302;SDS011;44109;52.398;7.024;2022-08-04T08:18:32;20.70;;;8.93;;
58302;SDS011;44109;52.398;7.024;2022-08-04T08:21:00;11.73;;;4.93;;
58302;SDS011;44109;52.398;7.024;2022-08-04T08:23:29;9.07;;;3.97;;
58302;SDS011;44109;52.398;7.024;2022-08-04T08:26:01;5.55;;;2.35;;
58302;SDS011;44109;52.398;7.024;2022-08-04T08:28:28;4.30;;;1.98;;
58302;SDS011;44109;52.398;7.024;2022-08-04T08:30:57;7.63;;;2.10;;
58302;SDS011;44109;52.398;7.024;2022-08-04T08:33:24;3.75;;;1.73;;
58302;SDS011;44109;52.398;7.024;2022-08-04T08:35:58;8.65;;;2.63;;
58302;SDS011;44109;52.398;7.024;2022-08-04T08:38:36;6.75;;;2.47;;
58302;SDS011;44109;52.398;7.024;2022-08-04T08:41:22;7.88;;;2.83;;
58302;SDS011;44109;52.398;7.024;2022-08-04T08:48:01;6.33;;;2.40;;
58302;SDS011;44109;52.398;7.024;2022-08-04T08:54:21;5.45;;;2.88;;
58302;SDS011;44109;52.398;7.024;2022-08-04T08:57:21;5.35;;;2.60;;
58302;SDS011;44109;52.398;7.024;2022-08-04T09:00:10;7.15;;;3.50;;
58302;SDS011;44109;52.398;7.024;2022-08-04T09:05:58;7.40;;;3.20;;
58302;SDS011;44109;52.398;7.024;2022-08-04T09:09:19;7.00;;;3.00;;
58302;SDS011;44109;52.398;7.024;2022-08-04T09:12:14;5.57;;;3.42;;
58302;SDS011;44109;52.398;7.024;2022-08-04T09:14:57;6.25;;;3.10;;
58302;SDS011;44109;52.398;7.024;2022-08-04T09:17:36;5.95;;;3.58;;
58302;SDS011;44109;52.398;7.024;2022-08-04T09:20:14;5.45;;;3.47;;
58302;SDS011;44109;52.398;7.024;2022-08-04T09:22:53;12.07;;;4.13;;
58302;SDS011;44109;52.398;7.024;2022-08-04T09:25:37;6.95;;;3.25;;
58302;SDS011;44109;52.398;7.024;2022-08-04T09:28:17;11.45;;;4.15;;
58302;SDS011;44109;52.398;7.024;2022-08-04T09:30:52;4.93;;;2.88;;
58302;SDS011;44109;52.398;7.024;2022-08-04T09:33:34;9.65;;;3.75;;
58302;SDS011;44109;52.398;7.024;2022-08-04T09:36:19;7.40;;;3.47;;
58302;SDS011;44109;52.398;7.024;2022-08-04T09:39:02;7.57;;;3.47;;
58302;SDS011;44109;52.398;7.024;2022-08-04T09:44:30;8.35;;;3.50;;
58302;SDS011;44109;52.398;7.024;2022-08-04T09:47:12;6.75;;;3.60;;
58302;SDS011;44109;52.398;7.024;2022-08-04T09:49:46;6.32;;;3.40;;
58302;SDS011;44109;52.398;7.024;2022-08-04T09:52:26;6.55;;;3.97;;
58302;SDS011;44109;52.398;7.024;2022-08-04T09:55:11;5.80;;;2.85;;
58302;SDS011;44109;52.398;7.024;2022-08-04T09:57:55;5.35;;;3.08;;
58302;SDS011;44109;52.398;7.024;2022-08-04T10:00:35;4.90;;;3.13;;
58302;SDS011;44109;52.398;7.024;2022-08-04T10:03:12;11.52;;;3.17;;
58302;SDS011;44109;52.398;7.024;2022-08-04T10:05:48;5.68;;;2.95;;
58302;SDS011;44109;52.398;7.024;2022-08-04T10:11:51;7.00;;;3.38;;
58302;SDS011;44109;52.398;7.024;2022-08-04T10:14:37;5.80;;;3.00;;
58302;SDS011;44109;52.398;7.024;2022-08-04T10:20:29;7.38;;;3.40;;
58302;SDS011;44109;52.398;7.024;2022-08-04T10:23:29;6.38;;;3.17;;
58302;SDS011;44109;52.398;7.024;2022-08-04T10:26:23;8.32;;;2.90;;
58302;SDS011;44109;52.398;7.024;2022-08-04T10:28:59;8.07;;;3.22;;
58302;SDS011;44109;52.398;7.024;2022-08-04T10:31:33;10.10;;;2.80;;
58302;SDS011;44109;52.398;7.024;2022-08-04T10:34:11;7.65;;;3.35;;
58302;SDS011;44109;52.398;7.024;2022-08-04T10:36:47;5.30;;;2.97;;
58302;SDS011;44109;52.398;7.024;2022-08-04T10:39:24;7.72;;;3.10;;
58302;SDS011;44109;52.398;7.024;2022-08-04T10:42:05;5.55;;;2.78;;
58302;SDS011;44109;52.398;7.024;2022-08-04T10:44:50;6.00;;;3.15;;
58302;SDS011;44109;52.398;7.024;2022-08-04T10:47:36;6.78;;;2.97;;
58302;SDS011;44109;52.398;7.024;2022-08-04T10:50:12;4.45;;;2.30;;
58302;SDS011;44109;52.398;7.024;2022-08-04T10:52:43;4.00;;;1.80;;
58302;SDS011;44109;52.398;7.024;2022-08-04T10:55:20;9.55;;;2.88;;
58302;SDS011;44109;52.398;7.024;2022-08-04T10:58:00;4.57;;;2.38;;
58302;SDS011;44109;52.398;7.024;2022-08-04T11:00:32;5.18;;;2.50;;
58302;SDS011;44109;52.398;7.024;2022-08-04T11:03:06;4.97;;;2.35;;
58302;SDS011;44109;52.398;7.024;2022-08-04T11:05:45;4.15;;;2.42;;
58302;SDS011;44109;52.398;7.024;2022-08-04T11:08:20;4.57;;;2.13;;
58302;SDS011;44109;52.398;7.024;2022-08-04T11:10:54;6.82;;;2.55;;
58302;SDS011;44109;52.398;7.024;2022-08-04T11:13:31;5.22;;;2.33;;
58302;SDS011;44109;52.398;7.024;2022-08-04T11:16:08;4.43;;;2.53;;
58302;SDS011;44109;52.398;7.024;2022-08-04T11:18:45;3.83;;;1.90;;
58302;SDS011;44109;52.398;7.024;2022-08-04T11:21:31;4.65;;;2.70;;
58302;SDS011;44109;52.398;7.024;2022-08-04T11:26:36;3.75;;;2.53;;
58302;SDS011;44109;52.398;7.024;2022-08-04T11:29:16;7.75;;;3.28;;
58302;SDS011;44109;52.398;7.024;2022-08-04T11:31:52;5.05;;;2.75;;
58302;SDS011;44109;52.398;7.024;2022-08-04T11:34:26;6.65;;;2.72;;
58302;SDS011;44109;52.398;7.024;2022-08-04T11:36:58;4.05;;;2.40;;
58302;SDS011;44109;52.398;7.024;2022-08-04T11:39:35;7.53;;;2.72;;
58302;SDS011;44109;52.398;7.024;2022-08-04T11:42:11;6.63;;;3.10;;
58302;SDS011;44109;52.398;7.024;2022-08-04T11:44:47;6.85;;;2.88;;
58302;SDS011;44109;52.398;7.024;2022-08-04T11:47:20;6.35;;;2.55;;
58302;SDS011;44109;52.398;7.024;2022-08-04T11:49:59;7.93;;;2.45;;
58302;SDS011;44109;52.398;7.024;2022-08-04T11:52:38;4.85;;;2.60;;
58302;SDS011;44109;52.398;7.024;2022-08-04T11:55:12;7.30;;;2.42;;
58302;SDS011;44109;52.398;7.024;2022-08-04T11:57:44;4.80;;;2.58;;
58302;SDS011;44109;52.398;7.024;2022-08-04T12:00:12;7.15;;;2.90;;
58302;SDS011;44109;52.398;7.024;2022-08-04T12:02:49;8.00;;;3.03;;
58302;SDS011;44109;52.398;7.024;2022-08-04T12:05:51;7.03;;;3.20;;
58302;SDS011;44109;52.398;7.024;2022-08-04T12:08:45;5.70;;;3.55;;
58302;SDS011;44109;52.398;7.024;2022-08-04T12:11:34;8.30;;;3.40;;
58302;SDS011;44109;52.398;7.024;2022-08-04T12:14:20;14.68;;;5.15;;
58302;SDS011;44109;52.398;7.024;2022-08-04T12:16:59;11.98;;;4.65;;
58302;SDS011;44109;52.398;7.024;2022-08-04T12:19:32;10.30;;;4.47;;
58302;SDS011;44109;52.398;7.024;2022-08-04T12:22:10;8.10;;;3.70;;
58302;SDS011;44109;52.398;7.024;2022-08-04T12:24:46;15.35;;;3.88;;
58302;SDS011;44109;52.398;7.024;2022-08-04T12:27:20;8.50;;;3.40;;
58302;SDS011;44109;52.398;7.024;2022-08-04T12:29:55;10.48;;;3.92;;
58302;SDS011;44109;52.398;7.024;2022-08-04T12:32:24;10.60;;;4.03;;
58302;SDS011;44109;52.398;7.024;2022-08-04T12:35:05;7.22;;;3.50;;
58302;SDS011;44109;52.398;7.024;2022-08-04T12:37:43;7.30;;;3.92;;
58302;SDS011;44109;52.398;7.024;2022-08-04T12:40:24;10.63;;;3.83;;
58302;SDS011;44109;52.398;7.024;2022-08-04T12:42:59;8.10;;;3.90;;
58302;SDS011;44109;52.398;7.024;2022-08-04T12:45:40;6.15;;;3.80;;
58302;SDS011;44109;52.398;7.024;2022-08-04T12:48:12;6.72;;;3.90;;
58302;SDS011;44109;52.398;7.024;2022-08-04T12:50:41;7.97;;;4.13;;
58302;SDS011;44109;52.398;7.024;2022-08-04T12:55:46;9.20;;;4.10;;
58302;SDS011;44109;52.398;7.024;2022-08-04T12:58:17;7.07;;;3.90;;
58302;SDS011;44109;52.398;7.024;2022-08-04T13:00:51;8.73;;;3.63;;
58302;SDS011;44109;52.398;7.024;2022-08-04T13:03:26;8.50;;;3.58;;
58302;SDS011;44109;52.398;7.024;2022-08-04T13:06:02;6.10;;;3.85;;
58302;SDS011;44109;52.398;7.024;2022-08-04T13:08:33;7.13;;;3.63;;
58302;SDS011;44109;52.398;7.024;2022-08-04T13:11:06;4.45;;;3.05;;
58302;SDS011;44109;52.398;7.024;2022-08-04T13:13:37;6.13;;;3.58;;
58302;SDS011;44109;52.398;7.024;2022-08-04T13:16:06;6.75;;;3.88;;
58302;SDS011;44109;52.398;7.024;2022-08-04T13:18:37;6.80;;;3.50;;
58302;SDS011;44109;52.398;7.024;2022-08-04T13:21:11;4.57;;;3.28;;
58302;SDS011;44109;52.398;7.024;2022-08-04T13:23:41;5.07;;;2.92;;
58302;SDS011;44109;52.398;7.024;2022-08-04T13:26:12;5.25;;;2.92;;
58302;SDS011;44109;52.398;7.024;2022-08-04T13:28:44;4.93;;;3.22;;
58302;SDS011;44109;52.398;7.024;2022-08-04T13:31:15;4.85;;;3.00;;
58302;SDS011;44109;52.398;7.024;2022-08-04T13:33:50;4.40;;;3.08;;
58302;SDS011;44109;52.398;7.024;2022-08-04T13:36:23;7.13;;;3.83;;
58302;SDS011;44109;52.398;7.024;2022-08-04T13:38:52;6.50;;;3.72;;
58302;SDS011;44109;52.398;7.024;2022-08-04T13:41:26;6.25;;;3.38;;
58302;SDS011;44109;52.398;7.024;2022-08-04T13:43:57;5.72;;;3.88;;
58302;SDS011;44109;52.398;7.024;2022-08-04T13:46:28;7.13;;;4.55;;
58302;SDS011;44109;52.398;7.024;2022-08-04T13:49:00;6.60;;;3.97;;
58302;SDS011;44109;52.398;7.024;2022-08-04T13:51:35;7.65;;;4.30;;
58302;SDS011;44109;52.398;7.024;2022-08-04T13:54:05;8.65;;;4.60;;
58302;SDS011;44109;52.398;7.024;2022-08-04T13:56:35;8.00;;;4.85;;
58302;SDS011;44109;52.398;7.024;2022-08-04T13:59:09;7.18;;;4.28;;
58302;SDS011;44109;52.398;7.024;2022-08-04T14:01:42;8.20;;;3.93;;
58302;SDS011;44109;52.398;7.024;2022-08-04T14:04:22;8.00;;;3.92;;
58302;SDS011;44109;52.398;7.024;2022-08-04T14:06:55;6.00;;;3.30;;
58302;SDS011;44109;52.398;7.024;2022-08-04T14:09:32;7.30;;;4.40;;
58302;SDS011;44109;52.398;7.024;2022-08-04T14:12:05;6.78;;;4.00;;
58302;SDS011;44109;52.398;7.024;2022-08-04T14:14:36;7.70;;;3.97;;
58302;SDS011;44109;52.398;7.024;2022-08-04T14:17:13;5.53;;;3.60;;
58302;SDS011;44109;52.398;7.024;2022-08-04T14:19:47;6.90;;;3.63;;
58302;SDS011;44109;52.398;7.024;2022-08-04T14:22:28;7.10;;;3.70;;
58302;SDS011;44109;52.398;7.024;2022-08-04T14:24:59;7.97;;;3.47;;
58302;SDS011;44109;52.398;7.024;2022-08-04T14:27:40;8.95;;;3.72;;
58302;SDS011;44109;52.398;7.024;2022-08-04T14:30:24;9.18;;;3.72;;
58302;SDS011;44109;52.398;7.024;2022-08-04T14:32:55;6.82;;;4.07;;
58302;SDS011;44109;52.398;7.024;2022-08-04T14:35:25;8.20;;;4.07;;
58302;SDS011;44109;52.398;7.024;2022-08-04T14:37:54;6.88;;;3.85;;
58302;SDS011;44109;52.398;7.024;2022-08-04T14:40:25;5.45;;;3.35;;
58302;SDS011;44109;52.398;7.024;2022-08-04T14:42:55;6.50;;;3.58;;
58302;SDS011;44109;52.398;7.024;2022-08-04T14:45:28;5.85;;;3.65;;
58302;SDS011;44109;52.398;7.024;2022-08-04T14:47:58;5.68;;;3.53;;
58302;SDS011;44109;52.398;7.024;2022-08-04T14:50:34;6.75;;;2.78;;
58302;SDS011;44109;52.398;7.024;2022-08-04T14:53:06;10.40;;;3.72;;
58302;SDS011;44109;52.398;7.024;2022-08-04T14:55:35;4.30;;;2.63;;
58302;SDS011;44109;52.398;7.024;2022-08-04T14:58:05;4.93;;;2.85;;
58302;SDS011;44109;52.398;7.024;2022-08-04T15:00:34;5.43;;;3.00;;
58302;SDS011;44109;52.398;7.024;2022-08-04T15:03:03;5.57;;;2.65;;
58302;SDS011;44109;52.398;7.024;2022-08-04T15:05:34;4.10;;;2.30;;
58302;SDS011;44109;52.398;7.024;2022-08-04T15:08:02;3.53;;;2.15;;
58302;SDS011;44109;52.398;7.024;2022-08-04T15:10:31;3.20;;;1.92;;
58302;SDS011;44109;52.398;7.024;2022-08-04T15:13:00;5.93;;;2.33;;
58302;SDS011;44109;52.398;7.024;2022-08-04T15:15:30;4.20;;;2.70;;
58302;SDS011;44109;52.398;7.024;2022-08-04T15:17:59;3.65;;;1.95;;
58302;SDS011;44109;52.398;7.024;2022-08-04T15:20:28;5.50;;;1.70;;
58302;SDS011;44109;52.398;7.024;2022-08-04T15:22:57;3.38;;;1.88;;
58302;SDS011;44109;52.398;7.024;2022-08-04T15:25:25;4.28;;;2.10;;
58302;SDS011;44109;52.398;7.024;2022-08-04T15:27:53;2.42;;;1.80;;
58302;SDS011;44109;52.398;7.024;2022-08-04T15:30:23;3.47;;;2.05;;
58302;SDS011;44109;52.398;7.024;2022-08-04T15:32:53;4.25;;;2.08;;
58302;SDS011;44109;52.398;7.024;2022-08-04T15:35:28;3.03;;;2.13;;
58302;SDS011;44109;52.398;7.024;2022-08-04T15:37:59;3.45;;;2.00;;
58302;SDS011;44109;52.398;7.024;2022-08-04T15:40:35;4.93;;;1.75;;
58302;SDS011;44109;52.398;7.024;2022-08-04T15:43:18;3.03;;;1.90;;
58302;SDS011;44109;52.398;7.024;2022-08-04T15:46:07;2.92;;;1.60;;
58302;SDS011;44109;52.398;7.024;2022-08-04T15:48:37;2.65;;;1.58;;
58302;SDS011;44109;52.398;7.024;2022-08-04T15:51:07;5.00;;;1.65;;
58302;SDS011;44109;52.398;7.024;2022-08-04T15:56:48;3.30;;;1.30;;
58302;SDS011;44109;52.398;7.024;2022-08-04T16:02:28;3.30;;;1.50;;
58302;SDS011;44109;52.398;7.024;2022-08-04T16:08:08;2.55;;;1.48;;
58302;SDS011;44109;52.398;7.024;2022-08-04T16:10:38;3.03;;;1.20;;
58302;SDS011;44109;52.398;7.024;2022-08-04T16:13:09;1.75;;;1.20;;
58302;SDS011;44109;52.398;7.024;2022-08-04T16:15:40;2.17;;;1.30;;
58302;SDS011;44109;52.398;7.024;2022-08-04T16:18:12;1.58;;;1.00;;
58302;SDS011;44109;52.398;7.024;2022-08-04T16:20:48;3.53;;;1.42;;
58302;SDS011;44109;52.398;7.024;2022-08-04T16:23:30;2.15;;;1.17;;
58302;SDS011;44109;52.398;7.024;2022-08-04T16:32:09;2.40;;;1.25;;
58302;SDS011;44109;52.398;7.024;2022-08-04T16:34:44;2.95;;;1.00;;
58302;SDS011;44109;52.398;7.024;2022-08-04T16:37:17;3.35;;;1.40;;
58302;SDS011;44109;52.398;7.024;2022-08-04T16:39:47;3.17;;;1.05;;
58302;SDS011;44109;52.398;7.024;2022-08-04T16:42:27;4.68;;;1.67;;
58302;SDS011;44109;52.398;7.024;2022-08-04T16:44:59;4.30;;;1.33;;
58302;SDS011;44109;52.398;7.024;2022-08-04T16:50:28;3.20;;;1.65;;
58302;SDS011;44109;52.398;7.024;2022-08-04T16:52:59;2.45;;;1.23;;
58302;SDS011;44109;52.398;7.024;2022-08-04T16:55:37;2.83;;;1.35;;
58302;SDS011;44109;52.398;7.024;2022-08-04T16:58:12;3.25;;;1.48;;
58302;SDS011;44109;52.398;7.024;2022-08-04T17:00:40;3.70;;;1.52;;
58302;SDS011;44109;52.398;7.024;2022-08-04T17:03:09;3.92;;;1.50;;
58302;SDS011;44109;52.398;7.024;2022-08-04T17:05:37;2.75;;;1.00;;
58302;SDS011;44109;52.398;7.024;2022-08-04T17:08:08;3.05;;;1.10;;